.
WxDataArchive / Data Records for 2009-10-22
2009-10-21 October 2009 2009-10-23

Data Records for Thursday, 22 October 2009

Time	Temp	Chill	HIndex	Humid	Dewpt	 Wind 	HiWind	WindDir	Rain 	Barom 
-----	----	-----	------	-----	-----	------	------	-------	-----	----- 
00:00	56.0	56.0	56.0	62	43.2	1	3	248	0.00	30.015 
00:05	56.0	56.0	56.0	62	43.2	1	5	248	0.00	30.015 
00:10	56.2	56.2	56.2	62	43.4	1	4	248	0.00	30.015 
00:15	56.3	56.3	56.3	62	43.4	1	3	248	0.00	30.007 
00:20	56.3	56.3	56.3	62	43.4	1	5	248	0.00	30.007 
00:25	56.3	56.3	56.3	62	43.4	1	3	202	0.00	30.007 
00:30	56.5	56.5	56.5	62	43.6	1	5	270	0.00	30.000 
00:35	56.5	56.5	56.5	61	43.2	2	6	248	0.00	30.000 
00:40	56.6	56.6	56.6	61	43.3	1	6	270	0.00	30.000 
00:45	56.7	56.7	56.7	61	43.4	2	5	248	0.00	29.987 
00:50	56.9	56.9	56.9	60	43.2	2	5	270	0.00	29.987 
00:55	57.0	57.0	57.0	60	43.3	2	6	248	0.00	29.987 
01:00	57.2	57.2	57.2	60	43.4	2	4	248	0.00	29.999 
01:05	57.2	57.2	57.2	59	43.0	1	5	270	0.00	29.999 
01:10	57.2	57.2	57.2	60	43.4	1	4	248	0.00	29.999 
01:15	57.0	57.0	57.0	60	43.3	1	4	270	0.00	29.998 
01:20	56.9	56.9	56.9	60	43.2	1	5	270	0.00	29.998 
01:25	56.9	56.9	56.9	61	43.6	1	5	270	0.00	29.998 
01:30	56.7	56.7	56.7	61	43.4	1	4	248	0.00	29.999 
01:35	56.6	56.6	56.6	62	43.7	0	2	248	0.00	29.999 
01:40	56.3	56.3	56.3	62	43.4	0	2	248	0.00	29.999 
01:45	56.2	56.2	56.2	62	43.4	1	3	248	0.00	30.001 
01:50	56.0	56.0	56.0	63	43.6	1	3	248	0.00	30.001 
01:55	56.0	56.0	56.0	63	43.6	1	2	248	0.00	30.001 
02:00	55.9	55.9	55.9	64	43.9	0	2	248	0.00	30.002 
02:05	55.9	55.9	55.9	64	43.9	1	3	248	0.00	30.002 
02:10	55.9	55.9	55.9	64	43.9	0	2	248	0.00	30.002 
02:15	55.7	55.7	55.7	64	43.7	1	3	248	0.00	29.999 
02:20	55.7	55.7	55.7	65	44.1	0	2	248	0.00	29.999 
02:25	55.6	55.6	55.6	65	44.0	0	2	248	0.00	29.999 
02:30	55.6	55.6	55.6	65	44.0	0	1	248	0.00	29.998 
02:35	55.4	55.4	55.4	65	43.8	0	1	248	0.00	29.998 
02:40	55.3	55.3	55.3	66	44.1	0	1	248	0.00	29.998 
02:45	55.1	55.1	55.1	66	43.9	0	1	248	0.00	29.993 
02:50	55.1	55.1	55.1	66	43.9	0	2	248	0.00	29.993 
02:55	55.1	55.1	55.1	66	43.9	0	3	202	0.00	29.993 
03:00	55.3	55.3	55.3	66	44.1	1	4	270	0.00	29.994 
03:05	55.4	55.4	55.4	66	44.2	1	4	248	0.00	29.994 
03:10	55.4	55.4	55.4	66	44.2	1	3	248	0.00	29.994 
03:15	55.6	55.6	55.6	66	44.4	1	3	270	0.00	29.985 
03:20	55.6	55.6	55.6	66	44.4	0	1	270	0.00	29.985 
03:25	55.6	55.6	55.6	66	44.4	0	2	270	0.00	29.985 
03:30	55.6	55.6	55.6	66	44.4	1	4	248	0.00	29.984 
03:35	55.4	55.4	55.4	66	44.2	0	3	248	0.00	29.984 
03:40	55.4	55.4	55.4	66	44.2	1	5	248	0.00	29.984 
03:45	55.4	55.4	55.4	66	44.2	0	2	225	0.00	29.985 
03:50	55.6	55.6	55.6	66	44.4	0	3	225	0.00	29.985 
03:55	55.6	55.6	55.6	66	44.4	1	3	248	0.00	29.985 
04:00	55.6	55.6	55.6	66	44.4	1	5	248	0.00	29.978 
04:05	55.4	55.4	55.4	67	44.6	0	3	248	0.00	29.978 
04:10	55.4	55.4	55.4	66	44.2	1	3	248	0.00	29.978 
04:15	55.4	55.4	55.4	67	44.6	1	3	315	0.00	29.974 
04:20	55.4	55.4	55.4	67	44.6	0	3	248	0.00	29.974 
04:25	55.4	55.4	55.4	67	44.6	0	4	248	0.00	29.974 
04:30	55.3	55.3	55.3	67	44.5	0	3	248	0.00	29.967 
04:35	55.3	55.3	55.3	67	44.5	1	4	248	0.00	29.967 
04:40	55.1	55.1	55.1	67	44.3	0	2	248	0.00	29.967 
04:45	55.1	55.1	55.1	67	44.3	0	2	248	0.00	29.967 
04:50	55.0	55.0	55.0	68	44.6	0	1	248	0.00	29.967 
04:55	55.0	55.0	55.0	68	44.6	1	4	248	0.00	29.967 
05:00	55.0	55.0	55.0	68	44.6	0	1	248	0.00	29.970 
05:05	54.8	54.8	54.8	69	44.8	0	1	248	0.00	29.970 
05:10	54.7	54.7	54.7	69	44.7	0	2	248	0.00	29.970 
05:15	54.5	54.5	54.5	69	44.5	0	2	248	0.00	29.970 
05:20	54.5	54.5	54.5	69	44.5	0	2	270	0.00	29.970 
05:25	54.4	54.4	54.4	69	44.4	0	2	270	0.00	29.970 
05:30	54.4	54.4	54.4	70	44.8	0	2	270	0.00	29.973 
05:35	54.4	54.4	54.4	70	44.8	0	2	270	0.00	29.973 
05:40	54.2	54.2	54.2	70	44.6	0	3	270	0.00	29.973 
05:45	54.2	54.2	54.2	70	44.6	0	1	270	0.00	29.973 
05:50	54.1	54.1	54.1	70	44.5	0	1	270	0.00	29.973 
05:55	54.1	54.1	54.1	71	44.9	0	1	270	0.00	29.973 
06:00	53.9	53.9	53.9	72	45.1	0	1	270	0.00	29.974 
06:05	53.8	53.8	53.8	72	45.0	0	1	270	0.00	29.974 
06:10	53.6	53.6	53.6	72	44.8	0	1	270	0.00	29.974 
06:15	53.6	53.6	53.6	72	44.8	0	3	270	0.00	29.965 
06:20	53.5	53.5	53.5	73	45.1	0	1	270	0.00	29.965 
06:25	53.3	53.3	53.3	73	44.9	0	1	270	0.00	29.965 
06:30	53.3	53.3	53.3	73	44.9	0	2	270	0.00	29.976 
06:35	53.3	53.3	53.3	73	44.9	0	2	248	0.00	29.976 
06:40	53.5	53.5	53.5	73	45.1	0	3	248	0.00	29.976 
06:45	53.5	53.5	53.5	73	45.1	0	2	292	0.00	29.980 
06:50	53.5	53.5	53.5	73	45.1	0	3	248	0.00	29.980 
06:55	53.5	53.5	53.5	73	45.1	0	3	248	0.00	29.980 
07:00	53.5	53.5	53.5	73	45.1	0	2	248	0.00	29.979 
07:05	53.5	53.5	53.5	73	45.1	0	2	248	0.00	29.979 
07:10	53.5	53.5	53.5	73	45.1	1	2	248	0.00	29.979 
07:15	53.5	53.5	53.5	73	45.1	0	2	225	0.00	29.980 
07:20	53.5	53.5	53.5	73	45.1	0	2	225	0.00	29.980 
07:25	53.3	53.3	53.3	74	45.2	0	1	225	0.00	29.980 
07:30	53.3	53.3	53.3	74	45.2	0	5	225	0.00	29.990 
07:35	53.2	53.2	53.2	74	45.1	0	3	248	0.00	29.990 
07:40	53.3	53.3	53.3	75	45.6	1	3	248	0.00	29.990 
07:45	53.3	53.3	53.3	74	45.2	0	3	270	0.00	29.993 
07:50	53.3	53.3	53.3	74	45.2	1	3	225	0.00	29.993 
07:55	53.5	53.5	53.5	74	45.4	0	1	248	0.00	29.993 
08:00	53.5	53.5	53.5	74	45.4	1	3	248	0.00	29.993 
08:05	53.6	53.6	53.6	74	45.5	0	2	248	0.00	29.993 
08:10	53.6	53.6	53.6	74	45.5	0	2	248	0.00	29.993 
08:15	53.6	53.6	53.6	74	45.5	0	1	270	0.00	29.993 
08:20	53.5	53.5	53.5	74	45.4	1	4	270	0.00	29.993 
08:25	53.5	53.5	53.5	74	45.4	0	1	248	0.00	29.993 
08:30	53.5	53.5	53.5	75	45.8	0	1	270	0.00	29.995 
08:35	53.5	53.5	53.5	75	45.8	0	2	270	0.00	29.995 
08:40	53.3	53.3	53.3	75	45.6	0	1	270	0.00	29.995 
08:45	53.3	53.3	53.3	75	45.6	0	1	270	0.00	30.002 
08:50	53.3	53.3	53.3	76	45.9	0	1	270	0.00	30.002 
08:55	53.3	53.3	53.3	76	45.9	0	1	270	0.00	30.002 
09:00	53.3	53.3	53.3	76	45.9	0	0	---	0.00	30.005 
09:05	53.3	53.3	53.3	76	45.9	0	1	270	0.00	30.005 
09:10	53.3	53.3	53.3	77	46.3	0	1	270	0.00	30.005 
09:15	53.5	53.5	53.5	77	46.5	0	1	270	0.00	30.005 
09:20	53.5	53.5	53.5	76	46.1	0	2	270	0.00	30.005 
09:25	53.6	53.6	53.6	76	46.2	0	1	270	0.00	30.005 
09:30	53.8	53.8	53.8	77	46.8	0	2	270	0.00	30.011 
09:35	53.9	53.9	53.9	76	46.5	0	2	225	0.00	30.011 
09:40	54.1	54.1	54.1	76	46.7	0	3	270	0.00	30.011 
09:45	54.1	54.1	54.1	76	46.7	0	1	270	0.00	30.013 
09:50	54.2	54.2	54.2	75	46.4	1	4	248	0.00	30.013 
09:55	54.4	54.4	54.4	75	46.6	1	4	248	0.00	30.013 
10:00	54.4	54.4	54.4	75	46.6	0	3	248	0.00	30.009 
10:05	54.5	54.5	54.5	75	46.7	1	4	248	0.00	30.009 
10:10	54.7	54.7	54.7	74	46.6	1	4	248	0.00	30.009 
10:15	54.8	54.8	54.8	74	46.7	0	3	248	0.00	30.009 
10:20	55.1	55.1	55.1	74	47.0	1	4	248	0.00	30.009 
10:25	55.4	55.4	55.4	74	47.3	0	3	248	0.00	30.009 
10:30	55.6	55.6	55.6	73	47.1	0	3	248	0.00	30.011 
10:35	55.9	55.9	55.9	73	47.4	0	2	248	0.00	30.011 
10:40	56.0	56.0	56.0	73	47.5	0	2	225	0.00	30.011 
10:45	56.2	56.2	56.2	73	47.7	0	2	225	0.00	30.012 
10:50	56.5	56.5	56.5	72	47.6	0	3	225	0.00	30.012 
10:55	56.6	56.6	56.6	72	47.7	1	3	225	0.00	30.012 
11:00	56.9	56.9	56.9	71	47.6	1	3	270	0.00	30.023 
11:05	57.0	57.0	57.0	71	47.7	1	4	248	0.00	30.023 
11:10	57.3	57.3	57.3	71	48.0	1	3	248	0.00	30.023 
11:15	57.5	57.5	57.5	70	47.8	1	4	248	0.00	30.023 
11:20	57.6	57.6	57.6	70	47.9	1	4	292	0.00	30.023 
11:25	57.8	57.8	57.8	70	48.1	1	4	225	0.00	30.023 
11:30	58.1	58.1	58.1	69	48.0	1	6	248	0.00	30.024 
11:35	58.3	58.3	58.3	69	48.2	1	4	248	0.00	30.024 
11:40	58.4	58.4	58.4	69	48.3	1	4	248	0.00	30.024 
11:45	58.7	58.7	58.7	69	48.6	1	4	315	0.00	30.023 
11:50	58.9	58.9	58.9	69	48.7	1	4	248	0.00	30.023 
11:55	59.0	59.0	59.0	68	48.5	1	4	292	0.00	30.023 
12:00	59.3	59.3	59.3	68	48.7	1	4	248	0.00	30.016 
12:05	59.3	59.3	59.3	68	48.7	1	3	248	0.00	30.016 
12:10	59.6	59.6	59.6	68	49.0	0	1	225	0.00	30.016 
12:15	59.8	59.8	59.8	68	49.2	0	2	225	0.00	30.007 
12:20	59.9	59.9	59.9	67	48.9	0	2	225	0.00	30.007 
12:25	60.1	60.1	60.1	66	48.7	1	3	225	0.00	30.007 
12:30	60.2	60.2	60.2	67	49.2	0	1	248	0.00	29.997 
12:35	60.4	60.4	60.4	65	48.6	0	2	248	0.00	29.997 
12:40	60.5	60.5	60.5	66	49.1	0	3	248	0.00	29.997 
12:45	60.9	60.9	60.9	67	49.9	0	1	248	0.00	29.996 
12:50	60.9	60.9	60.9	66	49.5	0	1	248	0.00	29.996 
12:55	61.0	61.0	61.0	66	49.6	0	1	248	0.00	29.996 
13:00	61.0	61.0	61.0	66	49.6	0	2	248	0.00	29.994 
13:05	61.2	61.2	61.2	65	49.3	0	1	248	0.00	29.994 
13:10	61.3	61.3	61.3	65	49.4	0	1	248	0.00	29.994 
13:15	61.5	61.5	61.5	65	49.6	0	1	248	0.00	29.976 
13:20	61.6	61.6	61.6	64	49.3	0	3	248	0.00	29.976 
13:25	61.6	61.6	61.6	64	49.3	0	1	248	0.00	29.976 
13:30	61.8	61.8	61.8	64	49.5	0	2	248	0.00	29.984 
13:35	62.0	62.0	62.0	64	49.7	1	3	248	0.00	29.984 
13:40	62.1	62.1	62.1	63	49.3	1	3	248	0.00	29.984 
13:45	62.1	62.1	62.1	64	49.8	0	2	248	0.00	29.979 
13:50	62.1	62.1	62.1	64	49.8	0	1	248	0.00	29.979 
13:55	62.3	62.3	62.3	64	50.0	0	2	248	0.00	29.979 
14:00	62.3	62.3	62.3	64	50.0	0	2	248	0.00	29.981 
14:05	62.1	62.1	62.1	63	49.3	0	2	248	0.00	29.981 
14:10	62.1	62.1	62.1	63	49.3	0	1	248	0.00	29.981 
14:15	62.1	62.1	62.1	65	50.2	0	1	248	0.00	29.975 
14:20	62.1	62.1	62.1	64	49.8	0	1	248	0.00	29.975 
14:25	62.3	62.3	62.3	64	50.0	0	1	248	0.00	29.975 
14:30	62.4	62.4	62.4	63	49.6	0	1	248	0.00	29.966 
14:35	62.6	62.6	62.6	63	49.8	0	1	248	0.00	29.966 
14:40	62.7	62.7	62.7	63	49.9	0	2	248	0.00	29.966 
14:45	63.1	63.1	63.1	64	50.7	0	1	248	0.00	29.959 
14:50	63.4	63.4	63.4	63	50.6	0	1	248	0.00	29.959 
14:55	63.7	63.7	63.7	62	50.4	0	1	248	0.00	29.959 
15:00	64.0	64.0	64.0	63	51.1	0	2	248	0.00	29.957 
15:05	64.2	64.2	64.2	62	50.9	0	3	248	0.00	29.957 
15:10	64.5	64.5	64.5	62	51.2	0	2	248	0.00	29.957 
15:15	64.7	64.7	64.7	62	51.4	0	3	22	0.00	29.946 
15:20	64.8	64.8	64.8	61	51.0	0	2	22	0.00	29.946 
15:25	65.0	65.0	65.0	60	50.8	0	2	0	0.00	29.946 
15:30	65.0	65.0	65.0	61	51.2	0	1	0	0.00	29.939 
15:35	65.0	65.0	65.0	60	50.8	0	2	338	0.00	29.939 
15:40	65.2	65.2	65.2	60	51.0	0	2	338	0.00	29.939 
15:45	65.3	65.3	65.3	59	50.6	0	1	338	0.00	29.942 
15:50	65.3	65.3	65.3	59	50.6	0	1	338	0.00	29.942 
15:55	65.5	65.5	65.5	61	51.7	0	0	---	0.00	29.942 
16:00	65.5	65.5	65.5	60	51.2	0	1	338	0.00	29.944 
16:05	65.5	65.5	65.5	59	50.8	0	2	338	0.00	29.944 
16:10	65.3	65.3	65.3	59	50.6	0	2	338	0.00	29.944 
16:15	65.5	65.5	65.5	59	50.8	0	2	338	0.00	29.941 
16:20	65.3	65.3	65.3	60	51.1	0	2	338	0.00	29.941 
16:25	65.2	65.2	65.2	59	50.5	1	2	338	0.00	29.941 
16:30	65.2	65.2	65.2	60	51.0	0	1	0	0.00	29.941 
16:35	65.2	65.2	65.2	61	51.4	0	2	0	0.00	29.941 
16:40	65.0	65.0	65.0	61	51.2	1	3	68	0.00	29.941 
16:45	64.7	64.7	64.7	60	50.5	1	3	68	0.00	29.948 
16:50	64.5	64.5	64.5	61	50.7	1	3	68	0.00	29.948 
16:55	64.3	64.3	64.3	62	51.0	0	1	68	0.00	29.948 
17:00	64.3	64.3	64.3	62	51.0	0	2	68	0.00	29.949 
17:05	64.2	64.2	64.2	64	51.8	0	1	68	0.00	29.949 
17:10	64.0	64.0	64.0	64	51.6	0	1	68	0.00	29.949 
17:15	63.9	63.9	63.9	64	51.5	0	1	68	0.00	29.943 
17:20	63.9	63.9	63.9	64	51.5	0	1	68	0.00	29.943 
17:25	63.7	63.7	63.7	64	51.3	0	0	---	0.00	29.943 
17:30	63.7	63.7	63.7	64	51.3	0	1	68	0.00	29.943 
17:35	63.5	63.5	63.5	64	51.1	0	2	68	0.00	29.943 
17:40	63.4	63.4	63.4	64	51.0	0	0	---	0.00	29.943 
17:45	63.4	63.4	63.4	65	51.4	0	1	68	0.00	29.951 
17:50	63.2	63.2	63.2	65	51.2	0	1	68	0.00	29.951 
17:55	63.1	63.1	63.1	65	51.1	0	0	---	0.00	29.951 
18:00	62.9	62.9	62.9	66	51.4	0	0	---	0.00	29.960 
18:05	62.7	62.7	62.7	66	51.2	0	0	---	0.00	29.960 
18:10	62.6	62.6	62.6	67	51.5	0	0	---	0.00	29.960 
18:15	62.4	62.4	62.4	68	51.7	0	0	---	0.00	29.970 
18:20	62.3	62.3	62.3	68	51.6	0	0	---	0.00	29.970 
18:25	62.1	62.1	62.1	69	51.8	0	0	---	0.00	29.970 
18:30	62.0	62.0	62.0	69	51.7	0	1	68	0.00	29.962 
18:35	61.8	61.8	61.8	69	51.5	0	1	68	0.00	29.962 
18:40	61.6	61.6	61.6	69	51.3	0	1	68	0.00	29.962 
18:45	61.6	61.6	61.6	69	51.3	0	1	68	0.00	29.961 
18:50	61.6	61.6	61.6	71	52.1	0	0	---	0.00	29.961 
18:55	61.5	61.5	61.5	73	52.8	0	2	68	0.00	29.961 
19:00	61.2	61.2	61.2	73	52.5	0	3	68	0.00	29.957 
19:05	60.9	60.9	60.9	74	52.6	0	2	90	0.00	29.957 
19:10	60.7	60.7	60.7	75	52.7	1	4	90	0.00	29.957 
19:15	60.5	60.5	60.5	76	52.9	0	2	90	0.00	29.954 
19:20	60.2	60.2	60.2	75	52.2	0	2	90	0.00	29.954 
19:25	60.1	60.1	60.1	76	52.5	1	3	90	0.00	29.954 
19:30	59.9	59.9	59.9	76	52.3	1	2	90	0.00	29.960 
19:35	59.8	59.8	59.8	77	52.6	0	2	90	0.00	29.960 
19:40	59.6	59.6	59.6	79	53.1	0	2	90	0.00	29.960 
19:45	59.3	59.3	59.3	80	53.1	0	2	90	0.00	29.953 
19:50	59.2	59.2	59.2	81	53.4	0	2	90	0.00	29.953 
19:55	58.9	58.9	58.9	81	53.1	0	2	90	0.01	29.953 
20:00	58.6	58.6	58.6	82	53.1	1	2	90	0.00	29.957 
20:05	58.4	58.4	58.4	82	52.9	1	3	90	0.00	29.957 
20:10	58.4	58.4	58.4	83	53.3	1	3	90	0.00	29.957 
20:15	58.3	58.3	58.3	84	53.5	1	3	68	0.00	29.950 
20:20	58.1	58.1	58.1	84	53.3	1	3	68	0.00	29.950 
20:25	58.0	58.0	58.0	84	53.2	0	2	68	0.00	29.950 
20:30	57.8	57.8	57.8	85	53.3	0	2	68	0.00	29.937 
20:35	57.6	57.6	57.6	86	53.4	0	3	68	0.01	29.937 
20:40	57.5	57.5	57.5	86	53.3	2	4	112	0.00	29.937 
20:45	57.5	57.5	57.5	87	53.7	1	4	90	0.00	29.942 
20:50	57.3	57.3	57.3	87	53.5	0	1	90	0.01	29.942 
20:55	57.2	57.2	57.2	88	53.7	0	2	90	0.00	29.942 
21:00	57.0	57.0	57.0	88	53.5	0	1	90	0.00	29.954 
21:05	56.9	56.9	56.9	89	53.7	0	0	---	0.00	29.954 
21:10	56.9	56.9	56.9	89	53.7	0	0	---	0.01	29.954 
21:15	56.7	56.7	56.7	90	53.8	0	0	---	0.00	29.967 
21:20	56.6	56.6	56.6	90	53.7	0	0	---	0.00	29.967 
21:25	56.5	56.5	56.5	91	53.9	0	1	90	0.01	29.967 
21:30	56.5	56.5	56.5	91	53.9	0	1	90	0.00	29.964 
21:35	56.5	56.5	56.5	91	53.9	0	0	---	0.00	29.964 
21:40	56.3	56.3	56.3	92	54.0	0	1	90	0.01	29.964 
21:45	56.3	56.3	56.3	92	54.0	0	1	90	0.00	29.965 
21:50	56.2	56.2	56.2	92	53.9	0	2	90	0.00	29.965 
21:55	56.2	56.2	56.2	92	53.9	0	2	90	0.01	29.965 
22:00	56.2	56.2	56.2	92	53.9	0	1	90	0.00	29.962 
22:05	56.2	56.2	56.2	93	54.2	0	3	90	0.00	29.962 
22:10	56.0	56.0	56.0	93	54.0	1	3	90	0.00	29.962 
22:15	56.0	56.0	56.0	93	54.0	1	3	90	0.01	29.960 
22:20	55.9	55.9	55.9	93	53.9	1	3	90	0.00	29.960 
22:25	55.9	55.9	55.9	93	53.9	1	4	112	0.01	29.960 
22:30	55.7	55.7	55.7	94	54.0	1	4	112	0.00	29.944 
22:35	55.7	55.7	55.7	94	54.0	2	5	90	0.00	29.944 
22:40	55.6	55.6	55.6	94	53.9	2	5	112	0.01	29.944 
22:45	55.4	55.4	55.4	94	53.7	3	9	90	0.00	29.932 
22:50	55.0	55.0	55.0	94	53.3	4	11	90	0.00	29.932 
22:55	54.4	54.4	54.4	94	52.7	4	11	112	0.01	29.932 
23:00	53.6	53.6	53.6	93	51.6	5	16	90	0.00	29.932 
23:05	52.9	52.9	52.9	94	51.2	5	11	90	0.00	29.932 
23:10	52.5	52.5	52.5	94	50.8	4	13	112	0.01	29.932 
23:15	51.9	51.9	51.9	94	50.2	5	13	90	0.00	29.932 
23:20	51.6	51.6	51.6	94	49.9	4	11	90	0.01	29.932 
23:25	51.1	51.1	51.1	94	49.4	5	12	90	0.00	29.932 
23:30	50.7	50.7	50.7	94	49.0	6	12	90	0.00	29.936 
23:35	50.4	50.4	50.4	94	48.7	7	14	90	0.01	29.936 
23:40	50.2	50.2	50.2	94	48.5	5	12	112	0.00	29.936 
23:45	50.1	50.1	50.1	94	48.4	3	8	90	0.00	29.933 
23:50	50.1	50.1	50.1	94	48.4	2	8	112	0.00	29.933 
23:55	49.9	48.8	49.9	95	48.5	4	9	112	0.00	29.933 

CoCoRaHS
IN-AL-39
A2 Web Hosting
Creative Commons License
GoDaddy
search engine by freefind advanced

loaded 2018-11-16 11:40:11 • last modified 2010-11-18 10:43:29
Privacy PolicyDisclaimer
• wx.awcolley.com is powered by PmWiki v.2002016 •
• all content (unless otherwise noted) © 2018 A W Colley